Time;durP1;ratioP1;P1;durP2;ratioP2;P2;SDS_P1;SDS_P2;PMS_P1;PMS_P2;Temp;Humidity;BMP_temperature;BMP_pressure;BME280_temperature;BME280_humidity;BME280_pressure;Samples;Min_cycle;Max_cycle;Signal;HPM_P1;HPM_P2
2022/09/14 00:02:06;;;;;;;2.63;2.43;;;20.50;91.80;;;;;;5140787;27;20740;-44
2022/09/14 00:04:32;;;;;;;3.07;2.77;;;20.50;91.70;;;;;;5140940;27;20172;-46
2022/09/14 00:06:57;;;;;;;2.30;2.10;;;20.50;91.70;;;;;;5140570;27;20197;-46
2022/09/14 00:09:23;;;;;;;2.77;2.17;;;20.60;91.90;;;;;;5141844;27;20290;-46
2022/09/14 00:11:50;;;;;;;2.57;2.37;;;20.60;92.20;;;;;;5141983;27;20187;-46
2022/09/14 00:14:16;;;;;;;3.80;2.97;;;20.50;92.30;;;;;;5142002;27;20432;-46
2022/09/14 00:16:42;;;;;;;2.40;2.20;;;20.50;92.40;;;;;;5106996;27;20801;-45
2022/09/14 00:19:18;;;;;;;3.30;3.00;;;20.60;92.40;;;;;;5141694;27;20460;-48
2022/09/14 00:21:44;;;;;;;6.23;2.63;;;20.60;92.40;;;;;;5141928;27;20423;-44
2022/09/14 00:24:10;;;;;;;4.20;2.37;;;20.60;92.40;;;;;;5141768;27;20424;-48
2022/09/14 00:26:36;;;;;;;3.80;2.63;;;20.60;92.50;;;;;;5141743;27;20191;-47
2022/09/14 00:29:04;;;;;;;5.63;2.77;;;20.60;92.50;;;;;;5141750;27;20463;-45
2022/09/14 00:31:31;;;;;;;3.10;2.80;;;20.60;92.50;;;;;;5141517;27;20819;-48
2022/09/14 00:33:56;;;;;;;3.63;3.23;;;20.60;92.60;;;;;;5141118;27;20424;-46
2022/09/14 00:36:25;;;;;;;2.80;2.50;;;20.70;92.70;;;;;;5142163;27;20434;-47
2022/09/14 00:38:51;;;;;;;3.57;2.73;;;20.70;92.60;;;;;;5140621;27;20289;-45
2022/09/14 00:41:20;;;;;;;3.17;2.73;;;20.70;92.70;;;;;;5141410;27;20429;-46
2022/09/14 00:44:00;;;;;;;3.10;2.80;;;20.70;92.80;;;;;;5141430;27;20425;-45
2022/09/14 00:46:36;;;;;;;3.63;2.90;;;20.70;92.70;;;;;;5140759;27;20517;-46
2022/09/14 00:49:04;;;;;;;2.90;2.70;;;20.70;92.80;;;;;;5122657;27;20476;-47
2022/09/14 00:51:31;;;;;;;3.07;2.70;;;20.70;92.80;;;;;;5122725;27;20413;-46
2022/09/14 00:53:58;;;;;;;3.80;2.60;;;20.70;93.00;;;;;;5141511;27;20417;-47
2022/09/14 00:56:24;;;;;;;3.50;3.20;;;20.70;93.50;;;;;;5141895;27;20427;-44
2022/09/14 00:58:51;;;;;;;5.40;2.70;;;20.70;93.80;;;;;;5141356;27;20420;-46
2022/09/14 01:01:16;;;;;;;3.13;2.83;;;20.70;94.00;;;;;;5122075;27;20913;-44
2022/09/14 01:03:42;;;;;;;3.10;2.80;;;20.70;94.40;;;;;;5123111;27;20432;-45
2022/09/14 01:06:20;;;;;;;3.50;2.57;;;20.80;94.80;;;;;;5141226;27;20494;-45
2022/09/14 01:09:07;;;;;;;2.97;2.67;;;20.70;95.10;;;;;;5122876;27;20206;-46
2022/09/14 01:11:56;;;;;;;4.60;2.80;;;20.60;95.70;;;;;;5141420;27;20414;-46
2022/09/14 01:15:02;;;;;;;3.70;3.30;;;20.50;96.10;;;;;;5141009;27;20826;-46
2022/09/14 01:17:36;;;;;;;4.30;3.60;;;20.20;96.40;;;;;;5123021;27;20424;-44
2022/09/14 01:20:18;;;;;;;7.87;4.80;;;20.00;98.00;;;;;;5140785;27;20811;-46
2022/09/14 01:22:52;;;;;;;9.57;5.73;;;19.70;99.90;;;;;;5140785;27;20470;-44
2022/09/14 01:25:38;;;;;;;5.57;4.97;;;19.40;99.90;;;;;;5123078;27;20414;-45
2022/09/14 01:28:12;;;;;;;7.10;4.90;;;19.30;99.90;;;;;;5140841;27;20886;-44
2022/09/14 01:30:40;;;;;;;5.50;4.50;;;19.20;99.90;;;;;;5122032;27;20425;-46
2022/09/14 01:33:17;;;;;;;6.53;4.10;;;19.10;99.90;;;;;;5141188;27;20819;-43
2022/09/14 01:35:51;;;;;;;4.90;4.40;;;19.10;99.90;;;;;;5121643;27;20429;-44
2022/09/14 01:38:49;;;;;;;6.00;4.23;;;19.10;99.90;;;;;;5121664;27;20554;-43
2022/09/14 01:41:19;;;;;;;5.50;4.67;;;19.10;99.90;;;;;;5118098;27;20454;-46
2022/09/14 01:43:54;;;;;;;5.63;3.87;;;19.10;99.90;;;;;;5140092;27;20432;-45
2022/09/14 01:46:28;;;;;;;7.57;3.93;;;19.00;99.90;;;;;;5122508;27;20490;-44
2022/09/14 01:49:23;;;;;;;5.00;3.27;;;18.80;99.90;;;;;;5140211;27;20453;-44
2022/09/14 01:52:12;;;;;;;3.60;3.30;;;18.80;99.90;;;;;;5140062;27;20477;-44
2022/09/14 01:54:44;;;;;;;6.77;4.30;;;18.60;99.90;;;;;;5139281;27;20444;-42
2022/09/14 01:57:15;;;;;;;5.60;3.73;;;18.50;99.90;;;;;;5121623;27;20529;-42
2022/09/14 01:59:45;;;;;;;5.30;3.80;;;18.40;99.90;;;;;;5139914;27;20429;-47
2022/09/14 02:02:26;;;;;;;6.20;4.00;;;18.30;99.90;;;;;;5122114;27;20436;-43
2022/09/14 02:05:02;;;;;;;9.17;5.00;;;18.30;99.90;;;;;;5120803;27;20419;-46
2022/09/14 02:07:28;;;;;;;9.50;4.47;;;18.30;99.90;;;;;;5120925;27;20419;-46
2022/09/14 02:09:54;;;;;;;4.90;4.00;;;18.30;99.90;;;;;;5120782;27;20467;-45
2022/09/14 02:12:21;;;;;;;4.47;3.83;;;18.30;99.90;;;;;;5138239;27;21041;-47
2022/09/14 02:14:47;;;;;;;4.40;4.00;;;18.30;99.90;;;;;;5138587;27;20427;-45
2022/09/14 02:17:13;;;;;;;4.90;4.50;;;18.30;99.90;;;;;;5121133;27;20840;-44
2022/09/14 02:19:55;;;;;;;4.43;4.00;;;18.30;99.90;;;;;;5138746;27;20468;-46
2022/09/14 02:22:20;;;;;;;4.63;4.17;;;18.40;99.90;;;;;;5121486;27;20181;-49
2022/09/14 02:24:47;;;;;;;5.40;4.90;;;18.40;99.90;;;;;;5140158;27;20438;-44
2022/09/14 02:27:12;;;;;;;4.47;3.90;;;18.40;99.90;;;;;;5139347;27;20173;-43
2022/09/14 02:29:38;;;;;;;7.30;4.90;;;18.40;99.90;;;;;;5139909;27;20830;-43
2022/09/14 02:32:14;;;;;;;4.73;4.33;;;18.40;99.90;;;;;;5121871;27;20177;-45
2022/09/14 02:34:52;;;;;;;4.90;4.50;;;18.30;99.90;;;;;;5121533;27;20188;-44
2022/09/14 02:37:19;;;;;;;4.40;4.00;;;18.30;99.90;;;;;;5137670;27;20455;-45
2022/09/14 02:40:06;;;;;;;5.07;4.57;;;18.30;99.90;;;;;;5121618;27;20552;-45
2022/09/14 02:42:35;;;;;;;4.57;4.10;;;18.30;99.90;;;;;;5139579;27;20426;-42
2022/09/14 02:45:10;;;;;;;4.40;4.00;;;18.40;99.90;;;;;;5121528;27;20419;-43
2022/09/14 02:47:45;;;;;;;8.00;4.40;;;18.40;99.90;;;;;;5139309;27;20423;-45
2022/09/14 02:50:10;;;;;;;4.10;3.70;;;18.50;99.90;;;;;;5139545;27;20422;-44
2022/09/14 02:52:47;;;;;;;4.20;3.77;;;18.50;99.90;;;;;;5139244;27;20516;-46
2022/09/14 02:55:17;;;;;;;4.60;3.67;;;18.50;99.90;;;;;;5138215;27;20177;-46
2022/09/14 02:58:07;;;;;;;5.37;4.63;;;18.60;99.90;;;;;;5118795;27;20427;-45
2022/09/14 03:00:40;;;;;;;4.40;4.10;;;18.50;99.90;;;;;;5137288;27;20418;-46
2022/09/14 03:03:06;;;;;;;6.03;3.93;;;18.50;99.90;;;;;;5137327;27;20440;-45
2022/09/14 03:05:33;;;;;;;4.20;3.80;;;18.50;99.90;;;;;;5138113;27;20507;-47
2022/09/14 03:07:59;;;;;;;4.57;4.13;;;18.50;99.90;;;;;;5136538;27;20431;-44
2022/09/14 03:10:25;;;;;;;4.77;4.27;;;18.40;99.90;;;;;;5136538;27;20752;-44
2022/09/14 03:12:51;;;;;;;5.87;4.27;;;18.40;99.90;;;;;;5136755;27;20424;-42
2022/09/14 03:15:17;;;;;;;4.67;4.23;;;18.40;99.90;;;;;;5137166;27;20865;-45
2022/09/14 03:17:47;;;;;;;4.83;4.23;;;18.50;99.90;;;;;;5135253;27;20531;-42
2022/09/14 03:20:18;;;;;;;4.80;4.30;;;18.50;99.90;;;;;;5136668;27;20375;-41
2022/09/14 03:22:44;;;;;;;5.27;4.77;;;18.50;99.90;;;;;;5119178;27;20425;-42
2022/09/14 03:25:10;;;;;;;5.17;4.67;;;18.50;99.90;;;;;;5138347;27;20848;-43
2022/09/14 03:27:36;;;;;;;4.60;4.20;;;18.60;99.90;;;;;;5137548;27;20448;-46
2022/09/14 03:30:03;;;;;;;5.23;4.73;;;18.70;99.90;;;;;;5136950;27;20687;-43
2022/09/14 03:32:28;;;;;;;5.80;4.60;;;18.70;99.90;;;;;;5137830;28;20496;-45
2022/09/14 03:34:54;;;;;;;4.53;4.13;;;18.80;99.90;;;;;;5138305;27;20413;-45
2022/09/14 03:37:19;;;;;;;5.40;4.40;;;19.00;99.90;;;;;;5138568;27;20633;-42
2022/09/14 03:39:45;;;;;;;5.07;4.67;;;18.90;99.90;;;;;;5137853;27;20238;-44
2022/09/14 03:42:11;;;;;;;5.03;4.57;;;18.80;99.90;;;;;;5137773;28;20204;-46
2022/09/14 03:44:36;;;;;;;5.47;4.57;;;18.70;99.90;;;;;;5137466;27;20442;-42
2022/09/14 03:47:02;;;;;;;4.83;4.37;;;18.60;99.90;;;;;;5136576;28;20189;-45
2022/09/14 03:49:27;;;;;;;7.00;4.70;;;18.50;99.90;;;;;;5137236;27;20182;-44
2022/09/14 03:51:53;;;;;;;8.67;5.13;;;18.60;99.90;;;;;;5137341;28;20189;-43
2022/09/14 03:54:18;;;;;;;4.50;4.10;;;18.70;99.90;;;;;;5136718;27;20216;-43
2022/09/14 03:56:44;;;;;;;4.83;4.40;;;18.60;99.90;;;;;;5137359;27;20185;-43
2022/09/14 03:59:10;;;;;;;4.80;4.30;;;18.60;99.90;;;;;;5137919;27;20211;-47
2022/09/14 04:01:36;;;;;;;4.60;4.20;;;18.60;99.90;;;;;;5135921;27;20237;-45
2022/09/14 04:04:02;;;;;;;4.63;4.07;;;18.60;99.90;;;;;;5137858;27;20172;-42
2022/09/14 04:06:28;;;;;;;5.90;4.73;;;18.60;99.90;;;;;;5137171;28;20847;-49
2022/09/14 04:08:54;;;;;;;5.07;4.60;;;18.60;99.90;;;;;;5135828;28;20523;-43
2022/09/14 04:11:24;;;;;;;5.20;4.70;;;18.60;99.90;;;;;;5134054;28;20508;-43
2022/09/14 04:13:50;;;;;;;4.73;4.33;;;18.60;99.90;;;;;;5136021;27;20522;-45
2022/09/14 04:16:19;;;;;;;4.63;4.23;;;18.60;99.90;;;;;;5136198;27;20439;-45
2022/09/14 04:18:46;;;;;;;6.10;4.60;;;18.60;99.90;;;;;;5135555;27;20463;-44
2022/09/14 04:21:23;;;;;;;4.73;4.40;;;18.60;99.90;;;;;;5118166;27;20430;-49
2022/09/14 04:23:52;;;;;;;5.20;4.70;;;18.50;99.90;;;;;;5136020;28;20425;-45
2022/09/14 04:26:19;;;;;;;5.10;4.70;;;18.60;99.90;;;;;;5135491;28;20482;-43
2022/09/14 04:28:45;;;;;;;5.73;4.80;;;18.70;99.90;;;;;;5135371;27;20416;-44
2022/09/14 04:31:11;;;;;;;5.50;5.00;;;18.70;99.90;;;;;;5134965;27;20699;-42
2022/09/14 04:33:38;;;;;;;5.17;4.77;;;18.70;99.90;;;;;;5134158;28;20178;-43
2022/09/14 04:36:09;;;;;;;5.90;5.40;;;18.60;99.90;;;;;;5134049;27;20418;-43
2022/09/14 04:38:36;;;;;;;5.93;5.33;;;18.50;99.90;;;;;;5136109;27;20470;-45
2022/09/14 04:41:09;;;;;;;6.07;5.43;;;18.50;99.90;;;;;;5134515;27;20456;-42
2022/09/14 04:43:35;;;;;;;5.40;4.90;;;18.50;99.90;;;;;;5115923;27;20413;-45
2022/09/14 04:46:05;;;;;;;6.30;5.80;;;18.40;99.90;;;;;;5131779;27;20455;-46
2022/09/14 04:48:33;;;;;;;6.90;6.00;;;18.40;99.90;;;;;;5133645;27;20835;-44
2022/09/14 04:51:12;;;;;;;6.20;5.60;;;18.30;99.90;;;;;;5135312;27;20482;-44
2022/09/14 04:53:38;;;;;;;6.80;6.03;;;18.30;99.90;;;;;;5134550;27;20498;-44
2022/09/14 04:56:07;;;;;;;6.70;6.10;;;18.30;99.90;;;;;;5135550;27;20508;-42
2022/09/14 04:58:35;;;;;;;6.83;6.30;;;18.30;99.90;;;;;;5134969;27;20480;-43
2022/09/14 05:01:05;;;;;;;7.50;6.67;;;18.30;99.90;;;;;;5134910;27;20892;-42
2022/09/14 05:03:31;;;;;;;8.47;6.57;;;18.30;99.90;;;;;;5132381;27;20496;-43
2022/09/14 05:06:04;;;;;;;7.17;6.57;;;18.30;99.90;;;;;;5115611;27;20814;-42
2022/09/14 05:08:30;;;;;;;8.40;7.33;;;18.30;99.90;;;;;;5131583;27;20524;-43
2022/09/14 05:10:57;;;;;;;7.40;6.70;;;18.40;99.90;;;;;;5132161;27;20523;-43
2022/09/14 05:13:23;;;;;;;7.50;6.90;;;18.40;99.90;;;;;;5133373;27;20184;-42
2022/09/14 05:15:49;;;;;;;7.37;6.67;;;18.50;99.90;;;;;;5114130;27;20427;-46
2022/09/14 05:18:15;;;;;;;7.67;6.97;;;18.50;99.90;;;;;;5133248;27;20933;-42
2022/09/14 05:20:41;;;;;;;7.90;7.00;;;18.60;99.90;;;;;;5134524;27;20423;-43
2022/09/14 05:23:06;;;;;;;7.80;7.10;;;18.60;99.90;;;;;;5136248;27;20415;-45
2022/09/14 05:25:32;;;;;;;7.80;7.07;;;18.60;99.90;;;;;;5136315;27;20173;-45
2022/09/14 05:27:58;;;;;;;10.40;7.37;;;18.60;99.90;;;;;;5134017;27;20200;-42
2022/09/14 05:30:23;;;;;;;7.40;6.70;;;18.70;99.90;;;;;;5133352;27;21039;-44
2022/09/14 05:32:49;;;;;;;8.43;7.30;;;18.70;99.90;;;;;;5133296;27;20180;-43
2022/09/14 05:35:15;;;;;;;10.97;6.80;;;18.70;99.90;;;;;;5134572;27;20273;-42
2022/09/14 05:37:41;;;;;;;7.80;7.10;;;18.70;99.90;;;;;;5113857;27;20453;-43
2022/09/14 05:40:07;;;;;;;8.10;7.40;;;18.70;99.90;;;;;;5131738;27;20470;-45
2022/09/14 05:42:33;;;;;;;8.53;6.80;;;18.70;99.90;;;;;;5131309;27;20776;-42
2022/09/14 05:44:59;;;;;;;7.60;6.90;;;18.70;99.90;;;;;;5131929;27;20435;-43
2022/09/14 05:47:27;;;;;;;7.73;7.13;;;18.70;99.90;;;;;;5129396;27;20619;-46
2022/09/14 05:49:53;;;;;;;7.30;6.23;;;18.80;99.90;;;;;;5131793;27;20421;-43
2022/09/14 05:52:19;;;;;;;6.20;5.73;;;18.80;99.90;;;;;;5131208;27;20431;-42
2022/09/14 05:54:45;;;;;;;6.50;6.00;;;18.80;99.90;;;;;;5131557;27;20173;-43
2022/09/14 05:57:10;;;;;;;7.50;6.80;;;19.00;99.90;;;;;;5134249;27;20836;-41
2022/09/14 05:59:36;;;;;;;7.60;6.37;;;18.90;99.90;;;;;;5133479;27;20345;-45
2022/09/14 06:02:02;;;;;;;7.10;6.40;;;19.00;99.90;;;;;;5133327;27;20453;-44
2022/09/14 06:04:28;;;;;;;6.20;5.60;;;19.10;99.90;;;;;;5135600;27;20183;-44
2022/09/14 06:06:53;;;;;;;7.07;5.70;;;19.10;99.90;;;;;;5136329;27;20408;-44
2022/09/14 06:09:19;;;;;;;6.97;6.10;;;19.20;99.90;;;;;;5136400;27;20222;-42
2022/09/14 06:11:44;;;;;;;6.20;5.60;;;19.20;99.90;;;;;;5134819;27;20169;-42
2022/09/14 06:14:10;;;;;;;6.50;5.90;;;19.30;99.90;;;;;;5134153;27;20210;-44
2022/09/14 06:16:35;;;;;;;5.77;5.27;;;19.40;99.90;;;;;;5135041;27;20260;-41
2022/09/14 06:19:02;;;;;;;6.13;5.70;;;19.40;99.90;;;;;;5133881;27;20458;-43
2022/09/14 06:21:30;;;;;;;5.80;5.30;;;19.40;99.90;;;;;;5132851;27;20213;-42
2022/09/14 06:23:56;;;;;;;7.20;5.60;;;19.50;99.90;;;;;;5135874;27;20456;-42
2022/09/14 06:26:21;;;;;;;6.20;5.60;;;19.50;99.90;;;;;;5136172;27;20456;-46
2022/09/14 06:28:48;;;;;;;6.73;5.97;;;19.50;99.90;;;;;;5135868;27;20463;-43
2022/09/14 06:31:16;;;;;;;5.93;5.43;;;19.60;99.90;;;;;;5136719;27;20182;-43
2022/09/14 06:33:43;;;;;;;5.60;5.20;;;19.60;99.90;;;;;;5136013;27;20492;-45
2022/09/14 06:36:11;;;;;;;7.70;5.30;;;19.80;99.90;;;;;;5135366;27;20425;-43
2022/09/14 06:38:38;;;;;;;7.77;6.43;;;19.80;99.90;;;;;;5116981;27;20554;-42
2022/09/14 06:41:06;;;;;;;5.73;5.23;;;19.80;99.90;;;;;;5134681;27;20719;-44
2022/09/14 06:43:34;;;;;;;11.27;6.20;;;19.80;99.90;;;;;;5135035;27;20413;-43
2022/09/14 06:46:22;;;;;;;5.40;4.73;;;20.00;99.90;;;;;;5134659;27;20463;-42
2022/09/14 06:48:49;;;;;;;6.73;5.73;;;20.00;99.90;;;;;;5136571;27;20440;-42
2022/09/14 06:51:27;;;;;;;5.73;5.10;;;20.20;99.90;;;;;;5136238;27;20435;-43
2022/09/14 06:53:55;;;;;;;5.30;4.80;;;20.30;99.90;;;;;;5136509;27;20469;-44
2022/09/14 06:56:21;;;;;;;5.70;5.10;;;20.40;99.90;;;;;;5117479;27;20428;-43
2022/09/14 06:58:47;;;;;;;6.03;5.30;;;20.50;99.90;;;;;;5133869;27;20470;-44
2022/09/14 07:01:14;;;;;;;5.57;4.73;;;20.60;99.90;;;;;;5135039;27;20676;-45
2022/09/14 07:03:42;;;;;;;5.40;4.97;;;20.60;99.90;;;;;;5134455;27;20419;-42
2022/09/14 07:06:10;;;;;;;7.37;5.13;;;20.60;99.90;;;;;;5134281;27;20801;-44
2022/09/14 07:08:37;;;;;;;10.77;5.20;;;20.60;99.90;;;;;;5134912;27;20421;-43
2022/09/14 07:11:04;;;;;;;6.27;5.23;;;20.50;99.90;;;;;;5133770;27;20436;-43
2022/09/14 07:13:30;;;;;;;6.57;5.60;;;20.60;99.90;;;;;;5135172;27;20476;-44
2022/09/14 07:15:57;;;;;;;5.63;5.00;;;20.70;99.90;;;;;;5135992;27;20422;-47
2022/09/14 07:18:31;;;;;;;5.30;4.90;;;20.60;99.90;;;;;;5135621;27;20424;-46
2022/09/14 07:21:05;;;;;;;6.13;5.57;;;20.70;99.90;;;;;;5135936;27;20425;-43
2022/09/14 07:23:31;;;;;;;10.43;5.13;;;20.80;99.90;;;;;;5136139;27;20432;-45
2022/09/14 07:26:04;;;;;;;5.30;4.80;;;20.80;99.90;;;;;;5134108;27;20581;-45
2022/09/14 07:28:29;;;;;;;8.40;5.00;;;21.00;99.90;;;;;;5135062;27;20474;-44
2022/09/14 07:30:55;;;;;;;5.10;4.70;;;21.00;99.90;;;;;;5115556;28;20419;-44
2022/09/14 07:33:21;;;;;;;6.80;4.97;;;21.20;99.90;;;;;;5136146;27;20430;-43
2022/09/14 07:35:46;;;;;;;6.17;4.60;;;21.50;99.90;;;;;;5136137;27;20179;-46
2022/09/14 07:38:12;;;;;;;6.20;5.00;;;21.90;99.90;;;;;;5135058;27;20578;-44
2022/09/14 07:40:38;;;;;;;5.40;4.70;;;22.40;99.90;;;;;;5133833;27;20221;-45
2022/09/14 07:43:03;;;;;;;4.70;4.13;;;22.60;99.90;;;;;;5115745;27;20604;-45
2022/09/14 07:45:30;;;;;;;4.43;4.03;;;23.10;99.90;;;;;;5135889;27;20599;-42
2022/09/14 07:47:55;;;;;;;4.10;3.80;;;23.50;99.90;;;;;;5134038;27;20253;-47
2022/09/14 07:50:21;;;;;;;5.57;4.30;;;23.80;99.90;;;;;;5132019;27;20940;-46
2022/09/14 07:52:50;;;;;;;4.80;4.40;;;23.50;99.90;;;;;;5113735;28;20178;-44
2022/09/14 07:55:15;;;;;;;5.70;4.00;;;23.50;99.90;;;;;;5131317;27;20182;-45
2022/09/14 07:57:41;;;;;;;4.37;3.80;;;23.60;99.90;;;;;;5132848;27;20851;-46
2022/09/14 08:00:09;;;;;;;6.20;4.10;;;23.50;99.90;;;;;;5133342;27;20464;-48
2022/09/14 08:02:35;;;;;;;5.17;4.20;;;23.40;99.90;;;;;;5133938;27;20411;-46
2022/09/14 08:05:00;;;;;;;4.50;4.10;;;23.80;99.90;;;;;;5134181;27;20421;-47
2022/09/14 08:07:26;;;;;;;4.77;4.23;;;24.20;99.90;;;;;;5135103;27;20257;-47
2022/09/14 08:09:51;;;;;;;4.43;3.60;;;24.20;99.90;;;;;;5118489;28;20174;-48
2022/09/14 08:12:17;;;;;;;5.00;3.80;;;24.60;99.90;;;;;;5138419;27;20217;-46
2022/09/14 08:14:43;;;;;;;5.90;4.40;;;25.40;99.10;;;;;;5139560;27;20183;-46
2022/09/14 08:17:09;;;;;;;5.53;4.37;;;26.20;97.50;;;;;;5139587;27;20176;-48
2022/09/14 08:19:36;;;;;;;3.90;3.60;;;25.90;96.10;;;;;;5139818;27;20206;-51
2022/09/14 08:22:03;;;;;;;4.13;3.80;;;25.50;96.60;;;;;;5138823;27;20423;-49
2022/09/14 08:24:29;;;;;;;5.73;4.80;;;24.70;97.40;;;;;;5138930;27;20442;-50
2022/09/14 08:26:55;;;;;;;3.90;3.40;;;24.20;98.70;;;;;;5138263;27;20405;-49
2022/09/14 08:29:20;;;;;;;5.07;3.80;;;24.00;99.70;;;;;;5136246;27;20879;-46
2022/09/14 08:31:50;;;;;;;4.90;4.30;;;23.60;99.90;;;;;;5138578;27;20200;-47
2022/09/14 08:34:17;;;;;;;5.77;4.40;;;23.70;99.90;;;;;;5140016;27;20185;-51
2022/09/14 08:36:44;;;;;;;5.70;4.60;;;23.60;99.90;;;;;;5140886;27;20450;-48
2022/09/14 08:39:12;;;;;;;7.07;4.30;;;23.40;99.90;;;;;;5138820;27;20542;-50
2022/09/14 08:41:55;;;;;;;4.77;4.30;;;23.20;99.90;;;;;;5140002;27;20432;-44
2022/09/14 08:44:40;;;;;;;5.77;4.53;;;23.10;99.90;;;;;;5138241;27;20570;-44
2022/09/14 08:47:23;;;;;;;4.50;3.80;;;23.50;99.90;;;;;;5137502;27;20418;-47
2022/09/14 08:50:16;;;;;;;5.17;3.87;;;24.00;99.90;;;;;;5120043;27;20408;-45
2022/09/14 08:52:52;;;;;;;3.70;3.30;;;24.40;98.90;;;;;;5121448;27;20795;-48
2022/09/14 08:55:47;;;;;;;8.50;4.10;;;25.10;97.60;;;;;;5120047;27;20416;-45
2022/09/14 08:58:48;;;;;;;4.27;3.63;;;25.70;96.40;;;;;;5121030;27;21025;-45
2022/09/14 09:01:25;;;;;;;4.67;3.47;;;26.70;94.60;;;;;;5139027;27;20842;-46
2022/09/14 09:04:20;;;;;;;5.20;3.50;;;27.50;93.20;;;;;;5139598;27;20465;-45
2022/09/14 09:07:01;;;;;;;4.20;3.80;;;27.50;92.40;;;;;;5140821;27;20416;-47
2022/09/14 09:09:34;;;;;;;5.00;3.83;;;27.80;92.10;;;;;;5139615;27;20418;-50
2022/09/14 09:12:00;;;;;;;4.00;3.60;;;28.70;90.90;;;;;;5137621;27;20826;-48
2022/09/14 09:14:30;;;;;;;4.00;3.67;;;29.00;89.00;;;;;;5120336;27;20413;-46
2022/09/14 09:16:58;;;;;;;4.00;3.23;;;29.40;86.80;;;;;;5137730;27;20776;-46
2022/09/14 09:19:36;;;;;;;4.07;3.67;;;29.40;87.70;;;;;;5136199;27;20485;-47
2022/09/14 09:22:04;;;;;;;3.87;3.57;;;29.50;87.10;;;;;;5120073;27;20485;-45
2022/09/14 09:24:39;;;;;;;4.23;3.83;;;29.80;84.80;;;;;;5119329;27;20713;-48
2022/09/14 09:27:12;;;;;;;7.13;3.50;;;30.10;83.40;;;;;;5120303;27;20790;-46
2022/09/14 09:29:38;;;;;;;4.23;3.33;;;29.60;82.80;;;;;;5137959;27;20444;-50
2022/09/14 09:32:06;;;;;;;3.90;3.60;;;29.80;83.00;;;;;;5118208;27;20472;-49
2022/09/14 09:34:33;;;;;;;4.40;3.57;;;29.50;83.20;;;;;;5136242;27;20248;-47
2022/09/14 09:36:59;;;;;;;3.80;3.47;;;29.40;84.10;;;;;;5135908;27;20924;-46
2022/09/14 09:39:28;;;;;;;3.43;3.13;;;29.80;82.20;;;;;;5113908;27;20484;-46
2022/09/14 09:42:05;;;;;;;5.33;3.83;;;29.60;81.00;;;;;;5108007;27;20429;-48
2022/09/14 09:44:54;;;;;;;4.70;3.43;;;29.50;81.50;;;;;;5120001;27;20422;-46
2022/09/14 09:47:46;;;;;;;4.50;3.60;;;30.10;79.40;;;;;;5137310;27;20455;-46
2022/09/14 09:50:12;;;;;;;3.80;3.43;;;29.60;80.00;;;;;;5113046;27;20448;-46
2022/09/14 09:52:38;;;;;;;4.40;3.60;;;29.70;79.30;;;;;;5136912;27;20976;-48
2022/09/14 09:55:05;;;;;;;4.70;3.43;;;29.50;80.10;;;;;;5100920;27;20181;-47
2022/09/14 09:57:32;;;;;;;5.27;3.50;;;29.60;79.40;;;;;;5101597;27;20232;-44
2022/09/14 10:00:24;;;;;;;6.37;3.50;;;29.60;78.60;;;;;;5119112;27;20606;-48
2022/09/14 10:02:50;;;;;;;4.27;3.97;;;29.20;80.20;;;;;;5138124;27;20508;-47
2022/09/14 10:05:16;;;;;;;4.63;4.10;;;30.10;80.60;;;;;;5122038;27;20451;-47
2022/09/14 10:07:48;;;;;;;4.23;3.43;;;30.70;78.00;;;;;;5118228;28;20559;-47
2022/09/14 10:10:15;;;;;;;4.47;3.50;;;31.50;74.70;;;;;;5128340;27;20766;-48
2022/09/14 10:12:50;;;;;;;5.30;3.50;;;32.10;71.70;;;;;;5113068;27;20422;-48
2022/09/14 10:15:27;;;;;;;4.07;3.77;;;31.90;71.70;;;;;;5110004;28;20450;-47
2022/09/14 10:18:15;;;;;;;4.57;4.17;;;32.00;69.90;;;;;;5102313;28;20438;-52
2022/09/14 10:20:53;;;;;;;5.77;3.80;;;31.90;68.20;;;;;;5116193;28;20447;-47
2022/09/14 10:23:20;;;;;;;6.33;3.47;;;30.60;72.20;;;;;;5118122;27;20905;-47
2022/09/14 10:25:50;;;;;;;8.07;3.53;;;30.40;72.70;;;;;;5096585;28;20440;-47
2022/09/14 10:28:21;;;;;;;3.97;3.53;;;30.30;74.10;;;;;;5114255;28;20396;-48
2022/09/14 10:31:01;;;;;;;4.30;3.90;;;29.20;75.30;;;;;;5115965;28;20427;-48
2022/09/14 10:33:28;;;;;;;4.17;3.67;;;28.70;78.10;;;;;;5114392;28;20394;-47
2022/09/14 10:36:06;;;;;;;3.93;3.30;;;28.70;79.00;;;;;;5113878;28;20707;-46
2022/09/14 10:38:34;;;;;;;4.13;3.67;;;28.80;78.80;;;;;;5114658;28;20880;-47
2022/09/14 10:41:15;;;;;;;3.80;3.50;;;28.80;77.10;;;;;;5114817;27;20728;-47
2022/09/14 10:44:06;;;;;;;3.93;3.60;;;28.30;78.00;;;;;;5134953;27;20429;-47
2022/09/14 10:46:58;;;;;;;4.30;3.90;;;28.10;79.30;;;;;;5137154;27;20438;-51
2022/09/14 10:49:36;;;;;;;3.77;3.37;;;27.90;80.60;;;;;;5137868;27;20451;-48
2022/09/14 10:52:17;;;;;;;4.33;3.27;;;28.30;81.60;;;;;;5130565;27;20448;-46
2022/09/14 10:54:49;;;;;;;4.10;3.57;;;28.80;80.50;;;;;;5109306;28;20433;-48
2022/09/14 10:57:47;;;;;;;3.80;3.50;;;29.30;78.70;;;;;;5112910;28;20424;-47
2022/09/14 11:00:18;;;;;;;3.60;3.30;;;28.90;77.40;;;;;;5125922;27;20506;-46
2022/09/14 11:03:03;;;;;;;4.30;3.53;;;28.60;79.00;;;;;;5111869;27;20426;-48
2022/09/14 11:05:36;;;;;;;5.30;3.70;;;28.80;79.00;;;;;;5129470;27;20545;-49
2022/09/14 11:08:35;;;;;;;3.50;2.93;;;29.70;77.90;;;;;;5130985;27;20529;-47
2022/09/14 11:11:25;;;;;;;3.80;3.17;;;30.30;74.20;;;;;;5135017;27;20402;-48
2022/09/14 11:14:00;;;;;;;3.73;3.33;;;31.40;68.90;;;;;;5133650;27;20411;-50
2022/09/14 11:16:48;;;;;;;3.57;3.27;;;31.90;66.10;;;;;;5132473;27;20415;-46
2022/09/14 11:19:19;;;;;;;5.00;3.20;;;32.20;62.80;;;;;;5131116;27;20472;-48
2022/09/14 11:21:48;;;;;;;3.13;2.70;;;32.20;60.70;;;;;;5131400;27;20410;-48
2022/09/14 11:24:43;;;;;;;4.40;3.20;;;32.30;59.70;;;;;;5131997;27;20578;-47
2022/09/14 11:27:42;;;;;;;3.77;2.80;;;32.30;59.80;;;;;;5115542;27;20447;-45
2022/09/14 11:30:15;;;;;;;3.90;3.00;;;31.90;59.80;;;;;;5119128;28;20448;-45
2022/09/14 11:32:54;;;;;;;3.67;2.40;;;31.80;60.20;;;;;;5113837;28;20431;-46
2022/09/14 11:35:38;;;;;;;3.97;2.83;;;32.40;58.80;;;;;;5114321;27;20429;-48
2022/09/14 11:38:13;;;;;;;5.83;3.13;;;31.90;59.00;;;;;;5131318;28;21051;-49
2022/09/14 11:40:52;;;;;;;3.20;2.90;;;31.00;59.50;;;;;;5115560;28;20807;-49
2022/09/14 11:43:28;;;;;;;4.97;2.93;;;30.20;62.50;;;;;;5133360;28;20420;-51
2022/09/14 11:46:06;;;;;;;4.73;3.40;;;29.50;63.30;;;;;;5134258;27;20434;-44
2022/09/14 11:48:40;;;;;;;3.67;2.97;;;28.30;67.30;;;;;;5138431;27;20393;-47
2022/09/14 11:51:08;;;;;;;3.40;3.10;;;27.80;70.10;;;;;;5120776;27;20416;-48
2022/09/14 11:53:35;;;;;;;4.10;3.33;;;27.70;71.80;;;;;;5112253;28;20446;-48
2022/09/14 11:56:01;;;;;;;3.60;3.23;;;27.50;72.70;;;;;;5088556;27;20785;-47
2022/09/14 11:58:30;;;;;;;3.50;3.20;;;27.40;73.70;;;;;;5137193;27;20496;-51
2022/09/14 12:01:02;;;;;;;3.70;3.03;;;27.20;75.00;;;;;;5121027;27;20564;-47
2022/09/14 12:04:00;;;;;;;3.97;3.33;;;27.00;76.30;;;;;;5120316;27;20413;-49
2022/09/14 12:06:29;;;;;;;3.90;3.23;;;26.60;76.80;;;;;;5064930;27;20480;-49
2022/09/14 12:09:21;;;;;;;4.63;3.33;;;26.40;78.40;;;;;;5139183;27;20831;-45
2022/09/14 12:11:48;;;;;;;8.50;3.20;;;26.30;79.50;;;;;;5138527;27;20533;-47
2022/09/14 12:14:22;;;;;;;3.43;3.13;;;26.20;80.80;;;;;;5121687;27;20420;-48
2022/09/14 12:17:13;;;;;;;4.87;3.73;;;26.10;81.10;;;;;;5136125;27;21016;-46
2022/09/14 12:19:40;;;;;;;4.90;3.73;;;26.10;82.80;;;;;;5138183;27;20517;-51
2022/09/14 12:22:19;;;;;;;8.93;3.60;;;26.10;82.90;;;;;;5137645;27;20500;-48
2022/09/14 12:24:55;;;;;;;5.50;3.43;;;25.70;85.40;;;;;;5135099;27;20819;-46
2022/09/14 12:27:21;;;;;;;6.27;3.43;;;25.20;89.40;;;;;;5115207;27;20405;-45
2022/09/14 12:29:47;;;;;;;3.90;3.20;;;24.80;91.30;;;;;;5118165;27;20435;-46
2022/09/14 12:32:38;;;;;;;6.27;3.50;;;24.30;92.90;;;;;;5137209;27;20802;-45
2022/09/14 12:35:42;;;;;;;4.40;3.40;;;24.00;93.60;;;;;;5119383;27;20565;-46
2022/09/14 12:38:30;;;;;;;11.57;4.13;;;23.70;94.70;;;;;;5137607;27;20427;-46
2022/09/14 12:41:20;;;;;;;6.63;4.37;;;23.30;96.10;;;;;;5120563;27;20483;-46
2022/09/14 12:43:49;;;;;;;4.43;3.87;;;23.00;97.10;;;;;;5087179;27;20459;-44
2022/09/14 12:46:20;;;;;;;6.77;4.10;;;22.80;98.00;;;;;;5138985;27;20839;-44
2022/09/14 12:48:46;;;;;;;6.43;4.47;;;22.50;99.80;;;;;;5139317;27;20405;-44
2022/09/14 12:51:27;;;;;;;6.13;4.07;;;22.20;99.90;;;;;;5136738;27;20406;-45
2022/09/14 12:54:07;;;;;;;4.67;4.17;;;21.90;99.90;;;;;;5136061;27;20318;-44
2022/09/14 12:56:37;;;;;;;4.87;4.20;;;21.70;99.90;;;;;;5135843;27;20807;-44
2022/09/14 12:59:44;;;;;;;5.10;4.60;;;21.60;99.90;;;;;;5136934;27;20663;-44
2022/09/14 13:02:31;;;;;;;7.00;4.80;;;21.60;99.90;;;;;;5097296;27;20412;-47
2022/09/14 13:04:57;;;;;;;5.60;4.33;;;21.40;99.90;;;;;;5140245;27;20411;-44
2022/09/14 13:07:27;;;;;;;5.63;4.03;;;21.40;99.90;;;;;;5119228;27;20408;-44
2022/09/14 13:09:54;;;;;;;7.20;4.37;;;21.40;99.90;;;;;;5116490;27;20888;-44